Observation data for Dimmitt on 08/20/2019      Previous  Date       Current Mesonet Observations  Soil Data  Daily Summary Page  Observations in Plain Language
KDMS 200500Z 16009KT 28/13 A3011 RMK A01 T02800126  RH  040%=      5-min Rain = 0
KDMS 200505Z 16009KT 28/13 A3011 RMK A01 T02800128  RH  041%=      5-min Rain = 0
KDMS 200510Z 17010KT 28/13 A3011 RMK A01 T02830128  RH  040%=      5-min Rain = 0
KDMS 200515Z 17010KT 29/13 A3011 RMK A01 T02850128  RH  039%=      5-min Rain = 0
KDMS 200520Z 16010KT 29/13 A3011 RMK A01 T02860129  RH  040%=      5-min Rain = 0
KDMS 200525Z 16010KT 28/13 A3011 RMK A01 T02840130  RH  040%=      5-min Rain = 0
KDMS 200530Z 16011KT 28/13 A3011 RMK A01 T02830131  RH  041%=      5-min Rain = 0
KDMS 200535Z 15011KT 28/13 A3011 RMK A01 T02830131  RH  041%=      5-min Rain = 0
KDMS 200540Z 16010KT 28/13 A3011 RMK A01 T02820132  RH  041%=      5-min Rain = 0
KDMS 200545Z 16010KT 28/13 A3011 RMK A01 T02830132  RH  041%=      5-min Rain = 0
KDMS 200550Z 17009KT 28/13 A3011 RMK A01 T02820132  RH  041%=      5-min Rain = 0
KDMS 200555Z 18008KT 28/13 A3011 RMK A01 T02810131  RH  041%=      5-min Rain = 0
KDMS 200600Z 17008KT 28/13 A3011 RMK A01 T02810131  RH  041%=      5-min Rain = 0
KDMS 200605Z 17007KT 28/13 A3011 RMK A01 T02800132  RH  042%=      5-min Rain = 0
KDMS 200610Z 17006KT 28/13 A3011 RMK A01 T02770131  RH  042%=      5-min Rain = 0
KDMS 200615Z 17006KT 28/13 A3011 RMK A01 T02750131  RH  043%=      5-min Rain = 0
KDMS 200620Z 17006KT 27/13 A3011 RMK A01 T02740131  RH  043%=      5-min Rain = 0
KDMS 200625Z 16007KT 27/13 A3011 RMK A01 T02720131  RH  044%=      5-min Rain = 0
KDMS 200630Z 16007KT 27/13 A3011 RMK A01 T02710131  RH  044%=      5-min Rain = 0
KDMS 200635Z 16007KT 27/13 A3012 RMK A01 T02710131  RH  044%=      5-min Rain = 0
KDMS 200640Z 16007KT 27/13 A3011 RMK A01 T02700132  RH  044%=      5-min Rain = 0
KDMS 200645Z 16007KT 27/13 A3011 RMK A01 T02690132  RH  045%=      5-min Rain = 0
KDMS 200650Z 16007KT 27/13 A3011 RMK A01 T02680133  RH  045%=      5-min Rain = 0
KDMS 200655Z 16007KT 27/13 A3011 RMK A01 T02660134  RH  046%=      5-min Rain = 0
KDMS 200700Z 17007KT 26/13 A3012 RMK A01 T02640133  RH  046%=      5-min Rain = 0
KDMS 200705Z 17007KT 26/13 A3012 RMK A01 T02610134  RH  047%=      5-min Rain = 0
KDMS 200710Z 17008KT 26/13 A3011 RMK A01 T02590133  RH  048%=      5-min Rain = 0
KDMS 200715Z 18008KT 26/13 A3011 RMK A01 T02590133  RH  048%=      5-min Rain = 0
KDMS 200720Z 18008KT 26/13 A3011 RMK A01 T02580133  RH  048%=      5-min Rain = 0
KDMS 200725Z 19008KT 26/13 A3011 RMK A01 T02570134  RH  049%=      5-min Rain = 0
KDMS 200730Z 19008KT 26/13 A3011 RMK A01 T02560134  RH  049%=      5-min Rain = 0
KDMS 200735Z 18009KT 26/14 A3011 RMK A01 T02570136  RH  049%=      5-min Rain = 0
KDMS 200740Z 18009KT 26/14 A3011 RMK A01 T02590136  RH  049%=      5-min Rain = 0
KDMS 200745Z 17010KT 26/14 A3011 RMK A01 T02600137  RH  049%=      5-min Rain = 0
KDMS 200750Z 16009KT 26/14 A3011 RMK A01 T02590138  RH  049%=      5-min Rain = 0
KDMS 200755Z 16007KT 26/14 A3012 RMK A01 T02550137  RH  050%=      5-min Rain = 0
KDMS 200800Z 17007KT 25/14 A3012 RMK A01 T02540137  RH  050%=      5-min Rain = 0
KDMS 200805Z 17007KT 25/14 A3012 RMK A01 T02530138  RH  051%=      5-min Rain = 0
KDMS 200810Z 18008KT 25/14 A3012 RMK A01 T02540139  RH  051%=      5-min Rain = 0
KDMS 200815Z 18007KT 25/14 A3012 RMK A01 T02540139  RH  051%=      5-min Rain = 0
KDMS 200820Z 19007KT 25/14 A3012 RMK A01 T02540139  RH  051%=      5-min Rain = 0
KDMS 200825Z 19008KT 25/14 A3012 RMK A01 T02540141  RH  052%=      5-min Rain = 0
KDMS 200830Z 19009KT 26/14 A3012 RMK A01 T02550141  RH  051%=      5-min Rain = 0
KDMS 200835Z 19009KT 26/14 A3012 RMK A01 T02570141  RH  051%=      5-min Rain = 0
KDMS 200840Z 19009KT 26/14 A3012 RMK A01 T02560141  RH  051%=      5-min Rain = 0
KDMS 200845Z 19009KT 26/14 A3012 RMK A01 T02560142  RH  051%=      5-min Rain = 0
KDMS 200850Z 19010KT 26/14 A3012 RMK A01 T02560142  RH  052%=      5-min Rain = 0
KDMS 200855Z 19011KT 26/14 A3012 RMK A01 T02570143  RH  052%=      5-min Rain = 0
KDMS 200900Z 19010KT 26/14 A3012 RMK A01 T02570143  RH  051%=      5-min Rain = 0
KDMS 200905Z 19010KT 26/14 A3012 RMK A01 T02570143  RH  052%=      5-min Rain = 0
KDMS 200910Z 19010KT 26/14 A3012 RMK A01 T02570143  RH  052%=      5-min Rain = 0
KDMS 200915Z 19010KT 26/14 A3012 RMK A01 T02560144  RH  052%=      5-min Rain = 0
KDMS 200920Z 19010KT 26/14 A3012 RMK A01 T02550144  RH  052%=      5-min Rain = 0
KDMS 200925Z 18010KT 26/14 A3012 RMK A01 T02550144  RH  052%=      5-min Rain = 0
KDMS 200930Z 18011KT 25/14 A3012 RMK A01 T02540144  RH  053%=      5-min Rain = 0
KDMS 200935Z 18011KT 25/14 A3012 RMK A01 T02530144  RH  053%=      5-min Rain = 0
KDMS 200940Z 19011KT 25/14 A3012 RMK A01 T02520144  RH  053%=      5-min Rain = 0
KDMS 200945Z 19011KT 25/14 A3012 RMK A01 T02530144  RH  053%=      5-min Rain = 0
KDMS 200950Z 18011KT 25/15 A3012 RMK A01 T02540145  RH  053%=      5-min Rain = 0
KDMS 200955Z 18011KT 25/15 A3011 RMK A01 T02530145  RH  053%=      5-min Rain = 0
KDMS 201000Z 18010KT 25/15 A3012 RMK A01 T02520145  RH  054%=      5-min Rain = 0
KDMS 201005Z 17008KT 25/14 A3012 RMK A01 T02510144  RH  054%=      5-min Rain = 0
KDMS 201010Z 17008KT 25/15 A3012 RMK A01 T02500145  RH  054%=      5-min Rain = 0
KDMS 201015Z 17009KT 25/15 A3012 RMK A01 T02490146  RH  055%=      5-min Rain = 0
KDMS 201020Z 18010KT 25/15 A3012 RMK A01 T02490145  RH  055%=      5-min Rain = 0
KDMS 201025Z 18011KT 25/15 A3012 RMK A01 T02500145  RH  055%=      5-min Rain = 0
KDMS 201030Z 18010KT 25/15 A3012 RMK A01 T02510145  RH  054%=      5-min Rain = 0
KDMS 201035Z 18010KT 25/15 A3012 RMK A01 T02510146  RH  054%=      5-min Rain = 0
KDMS 201040Z 18010KT 25/15 A3012 RMK A01 T02510146  RH  055%=      5-min Rain = 0
KDMS 201045Z 18010KT 25/15 A3012 RMK A01 T02500146  RH  055%=      5-min Rain = 0
KDMS 201050Z 19011KT 25/15 A3012 RMK A01 T02490147  RH  055%=      5-min Rain = 0
KDMS 201055Z 18011KT 25/15 A3012 RMK A01 T02470147  RH  056%=      5-min Rain = 0
KDMS 201100Z 18011KT 25/15 A3012 RMK A01 T02460147  RH  056%=      5-min Rain = 0
KDMS 201105Z 19011KT 25/15 A3012 RMK A01 T02460148  RH  057%=      5-min Rain = 0
KDMS 201110Z 19012KT 25/15 A3012 RMK A01 T02460148  RH  057%=      5-min Rain = 0
KDMS 201115Z 19012KT 25/15 A3012 RMK A01 T02460147  RH  056%=      5-min Rain = 0
KDMS 201120Z 19012KT 25/15 A3012 RMK A01 T02470147  RH  056%=      5-min Rain = 0
KDMS 201125Z 19012KT 25/15 A3012 RMK A01 T02470147  RH  056%=      5-min Rain = 0
KDMS 201130Z 20011KT 25/15 A3012 RMK A01 T02470147  RH  056%=      5-min Rain = 0
KDMS 201135Z 21011KT 25/15 A3012 RMK A01 T02470146  RH  056%=      5-min Rain = 0
KDMS 201140Z 20010KT 25/15 A3012 RMK A01 T02480146  RH  055%=      5-min Rain = 0
KDMS 201145Z 20010KT 25/15 A3012 RMK A01 T02470145  RH  055%=      5-min Rain = 0
KDMS 201150Z 20010KT 25/15 A3013 RMK A01 T02460145  RH  056%=      5-min Rain = 0
KDMS 201155Z 19008KT 25/14 A3013 RMK A01 T02450144  RH  056%=      5-min Rain = 0
KDMS 201200Z 19008KT 24/15 A3013 RMK A01 T02440145  RH  056%=      5-min Rain = 0
KDMS 201205Z 19009KT 24/15 A3013 RMK A01 T02430145  RH  056%=      5-min Rain = 0
KDMS 201210Z 20009KT 24/15 A3013 RMK A01 T02430145  RH  057%=      5-min Rain = 0
KDMS 201215Z 20009KT 24/14 A3013 RMK A01 T02420144  RH  057%=      5-min Rain = 0
KDMS 201220Z 20009KT 24/14 A3013 RMK A01 T02420144  RH  056%=      5-min Rain = 0
KDMS 201225Z 20009KT 24/14 A3013 RMK A01 T02430143  RH  056%=      5-min Rain = 0
KDMS 201230Z 21009KT 25/14 A3013 RMK A01 T02450142  RH  055%=      5-min Rain = 0
KDMS 201235Z 21010KT 25/14 A3013 RMK A01 T02450142  RH  055%=      5-min Rain = 0
KDMS 201240Z 21010KT 25/14 A3013 RMK A01 T02470141  RH  054%=      5-min Rain = 0
KDMS 201245Z 21009KT 25/14 A3014 RMK A01 T02470140  RH  054%=      5-min Rain = 0
KDMS 201250Z 21008KT 25/14 A3014 RMK A01 T02470141  RH  054%=      5-min Rain = 0
KDMS 201255Z 20008KT 25/14 A3014 RMK A01 T02470140  RH  054%=      5-min Rain = 0
KDMS 201300Z 20008KT 25/14 A3015 RMK A01 T02470141  RH  054%=      5-min Rain = 0
KDMS 201305Z 20008KT 25/14 A3015 RMK A01 T02470141  RH  054%=      5-min Rain = 0
KDMS 201310Z 21008KT 25/14 A3015 RMK A01 T02470140  RH  054%=      5-min Rain = 0
KDMS 201315Z 21008KT 25/14 A3015 RMK A01 T02470140  RH  054%=      5-min Rain = 0
KDMS 201320Z 21008KT 25/14 A3016 RMK A01 T02470140  RH  053%=      5-min Rain = 0
KDMS 201325Z 21007KT 25/14 A3016 RMK A01 T02480140  RH  053%=      5-min Rain = 0
KDMS 201330Z 20007KT 25/14 A3016 RMK A01 T02480140  RH  053%=      5-min Rain = 0
KDMS 201335Z 20008KT 25/14 A3016 RMK A01 T02490140  RH  053%=      5-min Rain = 0
KDMS 201340Z 20008KT 25/14 A3016 RMK A01 T02500139  RH  052%=      5-min Rain = 0
KDMS 201345Z 20007KT 25/14 A3016 RMK A01 T02510139  RH  052%=      5-min Rain = 0
KDMS 201350Z 21007KT 25/14 A3016 RMK A01 T02520139  RH  052%=      5-min Rain = 0
KDMS 201355Z 22007KT 25/14 A3016 RMK A01 T02540139  RH  051%=      5-min Rain = 0
KDMS 201400Z 22007KT 26/14 A3016 RMK A01 T02560140  RH  051%=      5-min Rain = 0
KDMS 201405Z 22008KT 26/14 A3017 RMK A01 T02590138  RH  049%=      5-min Rain = 0
KDMS 201410Z 22008KT 26/14 A3017 RMK A01 T02610138  RH  049%=      5-min Rain = 0
KDMS 201415Z 22009KT 27/14 A3017 RMK A01 T02670141  RH  048%=      5-min Rain = 0
KDMS 201420Z 23010KT 28/14 A3017 RMK A01 T02760143  RH  046%=      5-min Rain = 0
KDMS 201425Z 23012KT 28/15 A3017 RMK A01 T02800145  RH  046%=      5-min Rain = 0
KDMS 201430Z 23013KT 28/15 A3017 RMK A01 T02830147  RH  045%=      5-min Rain = 0
KDMS 201435Z 22013G18KT 29/15 A3017 RMK A01 T02850148  RH  045%=      5-min Rain = 0
KDMS 201440Z 22016KT 29/15 A3017 RMK A01 T02890149  RH  044%=      5-min Rain = 0
KDMS 201445Z 23017G22KT 29/15 A3017 RMK A01 T02910150  RH  044%=      5-min Rain = 0
KDMS 201450Z 22017KT 29/15 A3017 RMK A01 T02880148  RH  044%=      5-min Rain = 0
KDMS 201455Z 23014KT 29/15 A3017 RMK A01 T02900150  RH  044%=      5-min Rain = 0
KDMS 201500Z 22017G22KT 30/15 A3017 RMK A01 T02950150  RH  043%=      5-min Rain = 0
KDMS 201505Z 22016G21KT 29/15 A3017 RMK A01 T02930149  RH  043%=      5-min Rain = 0
KDMS 201510Z 24016KT 29/15 A3017 RMK A01 T02930148  RH  043%=      5-min Rain = 0
KDMS 201515Z 22014G19KT 29/15 A3017 RMK A01 T02910148  RH  044%=      5-min Rain = 0
KDMS 201520Z 23013G18KT 29/15 A3018 RMK A01 T02930149  RH  043%=      5-min Rain = 0
KDMS 201525Z 24015G20KT 30/15 A3018 RMK A01 T02980149  RH  042%=      5-min Rain = 0
KDMS 201530Z 23015KT 30/15 A3018 RMK A01 T02960149  RH  043%=      5-min Rain = 0
KDMS 201535Z 24016G21KT 30/15 A3018 RMK A01 T02970149  RH  042%=      5-min Rain = 0
KDMS 201540Z 23015G20KT 30/15 A3018 RMK A01 T02990150  RH  042%=      5-min Rain = 0
KDMS 201545Z 23014KT 30/15 A3018 RMK A01 T02960149  RH  043%=      5-min Rain = 0
KDMS 201550Z 24012KT 29/15 A3018 RMK A01 T02940149  RH  043%=      5-min Rain = 0
KDMS 201555Z 23012KT 30/15 A3018 RMK A01 T02960149  RH  043%=      5-min Rain = 0
KDMS 201600Z 23010G15KT 30/15 A3018 RMK A01 T02960150  RH  043%=      5-min Rain = 0
KDMS 201605Z 25010G15KT 30/15 A3019 RMK A01 T02990149  RH  042%=      5-min Rain = 0
KDMS 201610Z 24009KT 30/15 A3018 RMK A01 T02970151  RH  043%=      5-min Rain = 0
KDMS 201615Z 25012KT 30/15 A3018 RMK A01 T02960150  RH  043%=      5-min Rain = 0
KDMS 201620Z 23010KT 30/15 A3018 RMK A01 T03000152  RH  042%=      5-min Rain = 0
KDMS 201625Z 24010G15KT 30/15 A3018 RMK A01 T02980152  RH  043%=      5-min Rain = 0
KDMS 201630Z 26010G15KT 30/15 A3018 RMK A01 T02960152  RH  044%=      5-min Rain = 0
KDMS 201635Z 26011KT 30/15 A3018 RMK A01 T02950152  RH  044%=      5-min Rain = 0
KDMS 201640Z 25010G15KT 29/15 A3018 RMK A01 T02940152  RH  044%=      5-min Rain = 0
KDMS 201645Z 24009G14KT 30/15 A3018 RMK A01 T02950152  RH  044%=      5-min Rain = 0
KDMS 201650Z 24010KT 30/15 A3018 RMK A01 T02970153  RH  043%=      5-min Rain = 0
KDMS 201655Z 24011KT 30/15 A3018 RMK A01 T02990153  RH  043%=      5-min Rain = 0
KDMS 201700Z 22010KT 30/15 A3018 RMK A01 T03000154  RH  043%=      5-min Rain = 0
KDMS 201705Z 23008G14KT 30/15 A3018 RMK A01 T03030154  RH  042%=      5-min Rain = 0
KDMS 201710Z 22010KT 31/15 A3018 RMK A01 T03050153  RH  042%=      5-min Rain = 0
KDMS 201715Z 22008KT 30/15 A3018 RMK A01 T03040153  RH  042%=      5-min Rain = 0
KDMS 201720Z 23011KT 30/15 A3018 RMK A01 T03040154  RH  042%=      5-min Rain = 0
KDMS 201725Z 24010KT 30/15 A3018 RMK A01 T03020153  RH  042%=      5-min Rain = 0
KDMS 201730Z 24012KT 30/15 A3018 RMK A01 T03040153  RH  042%=      5-min Rain = 0
KDMS 201735Z 24011KT 31/15 A3018 RMK A01 T03050150  RH  041%=      5-min Rain = 0
KDMS 201740Z 24011KT 31/15 A3018 RMK A01 T03050150  RH  041%=      5-min Rain = 0
KDMS 201745Z 23011KT 31/15 A3019 RMK A01 T03050150  RH  041%=      5-min Rain = 0
KDMS 201750Z 24011KT 31/15 A3018 RMK A01 T03050150  RH  041%=      5-min Rain = 0
KDMS 201755Z 24011KT 31/15 A3018 RMK A01 T03050149  RH  041%=      5-min Rain = 0
KDMS 201800Z 25010KT 30/15 A3018 RMK A01 T03040150  RH  041%=      5-min Rain = 0
KDMS 201805Z 24010KT 31/15 A3018 RMK A01 T03050150  RH  041%=      5-min Rain = 0
KDMS 201810Z 25010G15KT 31/15 A3018 RMK A01 T03060151  RH  041%=      5-min Rain = 0
KDMS 201815Z 24010G15KT 31/15 A3018 RMK A01 T03100151  RH  040%=      5-min Rain = 0
KDMS 201820Z 25010KT 31/15 A3018 RMK A01 T03080151  RH  040%=      5-min Rain = 0
KDMS 201825Z 25009KT 31/15 A3017 RMK A01 T03070150  RH  040%=      5-min Rain = 0
KDMS 201830Z 23008G14KT 31/15 A3017 RMK A01 T03120151  RH  039%=      5-min Rain = 0
KDMS 201835Z 23010KT 31/15 A3017 RMK A01 T03110150  RH  039%=      5-min Rain = 0
KDMS 201840Z 24008KT 31/15 A3017 RMK A01 T03100149  RH  039%=      5-min Rain = 0
KDMS 201845Z 23008G14KT 32/15 A3016 RMK A01 T03150149  RH  038%=      5-min Rain = 0
KDMS 201850Z 19009KT 32/15 A3016 RMK A01 T03180147  RH  037%=      5-min Rain = 0
KDMS 201855Z 20007G13KT 32/15 A3016 RMK A01 T03170147  RH  038%=      5-min Rain = 0
KDMS 201900Z 20009G14KT 33/15 A3016 RMK A01 T03260148  RH  036%=      5-min Rain = 0
KDMS 201905Z 22011KT 33/15 A3016 RMK A01 T03270145  RH  035%=      5-min Rain = 0
KDMS 201910Z 20009KT 33/14 A3015 RMK A01 T03280144  RH  035%=      5-min Rain = 0
KDMS 201915Z 20006KT 32/14 A3015 RMK A01 T03240142  RH  035%=      5-min Rain = 0
KDMS 201920Z 19008KT 32/14 A3015 RMK A01 T03220136  RH  034%=      5-min Rain = 0
KDMS 201925Z 19008G13KT 33/14 A3015 RMK A01 T03250140  RH  034%=      5-min Rain = 0
KDMS 201930Z 19012KT 33/12 A3014 RMK A01 T03310122  RH  029%=      5-min Rain = 0
KDMS 201935Z 19012KT 33/13 A3014 RMK A01 T03320129  RH  030%=      5-min Rain = 0
KDMS 201940Z 18012G17KT 33/13 A3014 RMK A01 T03300128  RH  031%=      5-min Rain = 0
KDMS 201945Z 18012G17KT 33/13 A3014 RMK A01 T03330132  RH  031%=      5-min Rain = 0
KDMS 201950Z 18013KT 33/14 A3014 RMK A01 T03310135  RH  032%=      5-min Rain = 0
KDMS 201955Z 19012KT 33/13 A3013 RMK A01 T03320129  RH  030%=      5-min Rain = 0
KDMS 202000Z 19014KT 33/12 A3013 RMK A01 T03300119  RH  029%=      5-min Rain = 0
KDMS 202005Z 19011KT 33/13 A3013 RMK A01 T03330126  RH  030%=      5-min Rain = 0
KDMS 202010Z 19013KT 34/13 A3013 RMK A01 T03350128  RH  030%=      5-min Rain = 0
KDMS 202015Z 18012G17KT 33/13 A3013 RMK A01 T03330129  RH  030%=      5-min Rain = 0
KDMS 202020Z 18014KT 34/14 A3013 RMK A01 T03350136  RH  031%=      5-min Rain = 0
KDMS 202025Z 17013G18KT 34/14 A3013 RMK A01 T03380141  RH  032%=      5-min Rain = 0
KDMS 202030Z 17011G17KT 34/15 A3012 RMK A01 T03390145  RH  033%=      5-min Rain = 0
KDMS 202035Z 16014KT 34/15 A3012 RMK A01 T03390147  RH  033%=      5-min Rain = 0
KDMS 202040Z 18012KT 34/15 A3012 RMK A01 T03390147  RH  033%=      5-min Rain = 0
KDMS 202045Z 15012G17KT 33/15 A3012 RMK A01 T03340153  RH  035%=      5-min Rain = 0
KDMS 202050Z 17011KT 33/15 A3012 RMK A01 T03310150  RH  035%=      5-min Rain = 0
KDMS 202055Z 16010G16KT 33/15 A3011 RMK A01 T03320150  RH  035%=      5-min Rain = 0
KDMS 202100Z 17013KT 34/14 A3011 RMK A01 T03390138  RH  031%=      5-min Rain = 0
KDMS 202105Z 18012KT 34/14 A3011 RMK A01 T03390138  RH  031%=      5-min Rain = 0
KDMS 202110Z 16013G18KT 34/13 A3011 RMK A01 T03390133  RH  030%=      5-min Rain = 0
KDMS 202115Z 17013G19KT 34/12 A301 RMK A01 T03390122  RH  028%=      5-min Rain = 0
KDMS 202120Z 18013G19KT 35/12 A301 RMK A01 T03450116  RH  026%=      5-min Rain = 0
KDMS 202125Z 18016KT 35/11 A301 RMK A01 T03470105  RH  024%=      5-min Rain = 0
KDMS 202130Z 18015KT 35/11 A301 RMK A01 T03470106  RH  024%=      5-min Rain = 0
KDMS 202135Z 17015KT 35/10 A3009 RMK A01 T03470102  RH  023%=      5-min Rain = 0
KDMS 202140Z 16015KT 35/11 A3009 RMK A01 T03460108  RH  024%=      5-min Rain = 0
KDMS 202145Z 18015KT 35/10 A3009 RMK A01 T03460102  RH  023%=      5-min Rain = 0
KDMS 202150Z 18014KT 35/10 A3009 RMK A01 T03470100  RH  023%=      5-min Rain = 0
KDMS 202155Z 19014KT 35/11 A3009 RMK A01 T03500110  RH  024%=      5-min Rain = 0
KDMS 202200Z 17014KT 35/12 A3009 RMK A01 T03500115  RH  025%=      5-min Rain = 0
KDMS 202205Z 18015G20KT 35/12 A3009 RMK A01 T03520123  RH  026%=      5-min Rain = 0
KDMS 202210Z 16015G20KT 35/13 A3009 RMK A01 T03450127  RH  028%=      5-min Rain = 0
KDMS 202215Z 18014KT 34/13 A3008 RMK A01 T03390128  RH  029%=      5-min Rain = 0
KDMS 202220Z 18015KT 34/12 A3008 RMK A01 T03380124  RH  028%=      5-min Rain = 0
KDMS 202225Z 18013G18KT 34/13 A3008 RMK A01 T03400128  RH  029%=      5-min Rain = 0
KDMS 202230Z 18015KT 34/13 A3008 RMK A01 T03430129  RH  029%=      5-min Rain = 0
KDMS 202235Z 19015G20KT 35/13 A3008 RMK A01 T03450133  RH  029%=      5-min Rain = 0
KDMS 202240Z 16013G18KT 35/14 A3008 RMK A01 T03460138  RH  030%=      5-min Rain = 0
KDMS 202245Z 16014G19KT 35/14 A3008 RMK A01 T03470138  RH  030%=      5-min Rain = 0
KDMS 202250Z 17013G18KT 35/14 A3008 RMK A01 T03480136  RH  029%=      5-min Rain = 0
KDMS 202255Z 17012KT 35/14 A3008 RMK A01 T03470137  RH  030%=      5-min Rain = 0
KDMS 202300Z 19012G18KT 35/14 A3008 RMK A01 T03500136  RH  029%=      5-min Rain = 0
KDMS 202305Z 18015G20KT 35/13 A3008 RMK A01 T03490131  RH  028%=      5-min Rain = 0
KDMS 202310Z 17014G20KT 35/13 A3008 RMK A01 T03470131  RH  028%=      5-min Rain = 0
KDMS 202315Z 16013KT 35/13 A3008 RMK A01 T03460128  RH  028%=      5-min Rain = 0
KDMS 202320Z 17014KT 35/13 A3008 RMK A01 T03460128  RH  028%=      5-min Rain = 0
KDMS 202325Z 17013KT 34/13 A3008 RMK A01 T03440129  RH  028%=      5-min Rain = 0
KDMS 202330Z 17013G18KT 35/13 A3008 RMK A01 T03460129  RH  028%=      5-min Rain = 0
KDMS 202335Z 18013G18KT 35/12 A3008 RMK A01 T03470118  RH  026%=      5-min Rain = 0
KDMS 202340Z 17013G19KT 35/12 A3008 RMK A01 T03470121  RH  026%=      5-min Rain = 0
KDMS 202345Z 18013KT 35/12 A3008 RMK A01 T03460121  RH  027%=      5-min Rain = 0
KDMS 202350Z 17013KT 35/12 A3008 RMK A01 T03450122  RH  027%=      5-min Rain = 0
KDMS 202355Z 17012KT 35/12 A3009 RMK A01 T03450123  RH  027%=      5-min Rain = 0
KDMS 210000Z 17012G17KT 35/13 A3009 RMK A01 T03460125  RH  028%=      5-min Rain = 0
KDMS 210005Z 18013KT 34/12 A3009 RMK A01 T03440121  RH  027%=      5-min Rain = 0
KDMS 210010Z 18013G18KT 34/12 A3009 RMK A01 T03430120  RH  027%=      5-min Rain = 0
KDMS 210015Z 18011KT 34/12 A3009 RMK A01 T03410121  RH  027%=      5-min Rain = 0
KDMS 210020Z 17012KT 34/12 A3009 RMK A01 T03400123  RH  028%=      5-min Rain = 0
KDMS 210025Z 17012KT 34/12 A3009 RMK A01 T03370122  RH  028%=      5-min Rain = 0
KDMS 210030Z 17011KT 34/12 A3009 RMK A01 T03350122  RH  029%=      5-min Rain = 0
KDMS 210035Z 18011KT 33/12 A3009 RMK A01 T03320121  RH  029%=      5-min Rain = 0
KDMS 210040Z 17010KT 33/12 A3008 RMK A01 T03300120  RH  029%=      5-min Rain = 0
KDMS 210045Z 17010KT 33/12 A3008 RMK A01 T03270122  RH  030%=      5-min Rain = 0
KDMS 210050Z 17009KT 32/12 A3009 RMK A01 T03240124  RH  031%=      5-min Rain = 0
KDMS 210055Z 18009KT 32/13 A3009 RMK A01 T03220126  RH  032%=      5-min Rain = 0
KDMS 210100Z 17008KT 32/13 A3009 RMK A01 T03200128  RH  032%=      5-min Rain = 0
KDMS 210105Z 17008KT 32/13 A3009 RMK A01 T03160128  RH  033%=      5-min Rain = 0
KDMS 210110Z 17009KT 31/13 A3009 RMK A01 T03140129  RH  034%=      5-min Rain = 0
KDMS 210115Z 17007KT 31/13 A3009 RMK A01 T03110129  RH  034%=      5-min Rain = 0
KDMS 210120Z 16008KT 31/13 A3009 RMK A01 T03080130  RH  035%=      5-min Rain = 0
KDMS 210125Z 16008KT 31/13 A3009 RMK A01 T03060128  RH  035%=      5-min Rain = 0
KDMS 210130Z 16008KT 30/13 A3009 RMK A01 T03040126  RH  035%=      5-min Rain = 0
KDMS 210135Z 16008KT 30/13 A3009 RMK A01 T03020125  RH  035%=      5-min Rain = 0
KDMS 210140Z 16008KT 30/13 A3009 RMK A01 T02990125  RH  036%=      5-min Rain = 0
KDMS 210145Z 16008KT 30/13 A301 RMK A01 T02970126  RH  036%=      5-min Rain = 0
KDMS 210150Z 16008KT 30/13 A301 RMK A01 T02960125  RH  036%=      5-min Rain = 0
KDMS 210155Z 16007KT 29/13 A301 RMK A01 T02940125  RH  037%=      5-min Rain = 0
KDMS 210200Z 16008KT 29/13 A301 RMK A01 T02930126  RH  037%=      5-min Rain = 0
KDMS 210205Z 16008KT 29/13 A301 RMK A01 T02910126  RH  038%=      5-min Rain = 0
KDMS 210210Z 16008KT 29/13 A301 RMK A01 T02900125  RH  038%=      5-min Rain = 0
KDMS 210215Z 16009KT 29/13 A301 RMK A01 T02880125  RH  038%=      5-min Rain = 0
KDMS 210220Z 16008KT 29/13 A301 RMK A01 T02870125  RH  038%=      5-min Rain = 0
KDMS 210225Z 16008KT 29/13 A3011 RMK A01 T02860127  RH  039%=      5-min Rain = 0
KDMS 210230Z 16007KT 28/13 A3011 RMK A01 T02840129  RH  040%=      5-min Rain = 0
KDMS 210235Z 16007KT 28/13 A3011 RMK A01 T02830130  RH  040%=      5-min Rain = 0
KDMS 210240Z 16008KT 28/13 A3011 RMK A01 T02840130  RH  040%=      5-min Rain = 0
KDMS 210245Z 15007KT 29/13 A3011 RMK A01 T02850130  RH  040%=      5-min Rain = 0
KDMS 210250Z 15008KT 28/13 A3011 RMK A01 T02840132  RH  041%=      5-min Rain = 0
KDMS 210255Z 14008KT 28/13 A3011 RMK A01 T02840132  RH  041%=      5-min Rain = 0
KDMS 210300Z 14009KT 29/13 A3012 RMK A01 T02860131  RH  040%=      5-min Rain = 0
KDMS 210305Z 15010KT 29/13 A3011 RMK A01 T02870130  RH  040%=      5-min Rain = 0
KDMS 210310Z 15010KT 29/13 A3011 RMK A01 T02870129  RH  039%=      5-min Rain = 0
KDMS 210315Z 15010KT 29/13 A3011 RMK A01 T02860130  RH  040%=      5-min Rain = 0
KDMS 210320Z 16011KT 28/13 A3011 RMK A01 T02840131  RH  040%=      5-min Rain = 0
KDMS 210325Z 16010KT 28/13 A3011 RMK A01 T02820130  RH  041%=      5-min Rain = 0
KDMS 210330Z 16010KT 28/13 A3011 RMK A01 T02800130  RH  041%=      5-min Rain = 0
KDMS 210335Z 16010KT 28/13 A3011 RMK A01 T02780130  RH  042%=      5-min Rain = 0
KDMS 210340Z 16010KT 28/13 A3011 RMK A01 T02760130  RH  042%=      5-min Rain = 0
KDMS 210345Z 16010KT 27/13 A3011 RMK A01 T02740129  RH  042%=      5-min Rain = 0
KDMS 210350Z 16009KT 27/13 A3011 RMK A01 T02710129  RH  043%=      5-min Rain = 0
KDMS 210355Z 17009KT 27/13 A3011 RMK A01 T02680128  RH  044%=      5-min Rain = 0
KDMS 210400Z 17009KT 27/13 A3012 RMK A01 T02650129  RH  045%=      5-min Rain = 0
KDMS 210405Z 17010KT 26/13 A3012 RMK A01 T02630131  RH  046%=      5-min Rain = 0
KDMS 210410Z 17009KT 26/13 A3012 RMK A01 T02600132  RH  047%=      5-min Rain = 0
KDMS 210415Z 17009KT 26/13 A3012 RMK A01 T02580132  RH  048%=      5-min Rain = 0
KDMS 210420Z 17008KT 26/13 A3012 RMK A01 T02550132  RH  048%=      5-min Rain = 0
KDMS 210425Z 16008KT 25/13 A3012 RMK A01 T02540132  RH  049%=      5-min Rain = 0
KDMS 210430Z 16008KT 25/13 A3012 RMK A01 T02520131  RH  049%=      5-min Rain = 0
KDMS 210435Z 17008KT 25/13 A3012 RMK A01 T02520130  RH  048%=      5-min Rain = 0
KDMS 210440Z 17008KT 25/13 A3012 RMK A01 T02520130  RH  049%=      5-min Rain = 0
KDMS 210445Z 17009KT 25/13 A3012 RMK A01 T02520129  RH  048%=      5-min Rain = 0
KDMS 210450Z 17009KT 25/13 A3012 RMK A01 T02520128  RH  048%=      5-min Rain = 0
KDMS 210455Z 17010KT 25/13 A3012 RMK A01 T02520128  RH  048%=      5-min Rain = 0

Page generated in 0.009 seconds.